createdAt,value
2023-01-03T00:00:26.179Z,15.07
2023-01-03T00:02:53.267Z,14.48
2023-01-03T00:05:20.763Z,14.15
2023-01-03T00:07:47.747Z,14.93
2023-01-03T00:10:14.813Z,14.38
2023-01-03T00:12:41.912Z,14.43
2023-01-03T00:15:09.664Z,14.40
2023-01-03T00:17:37.995Z,15.18
2023-01-03T00:20:06.783Z,13.25
2023-01-03T00:22:33.845Z,14.93
2023-01-03T00:25:01.121Z,14.65
2023-01-03T00:27:28.569Z,13.60
2023-01-03T00:29:55.745Z,13.88
2023-01-03T00:32:22.763Z,13.60
2023-01-03T00:34:50.197Z,14.63
2023-01-03T00:37:17.432Z,15.07
2023-01-03T00:39:44.522Z,15.10
2023-01-03T00:42:11.601Z,15.00
2023-01-03T00:44:38.619Z,14.50
2023-01-03T00:47:06.761Z,14.23
2023-01-03T00:49:33.807Z,14.18
2023-01-03T00:52:00.793Z,14.13
2023-01-03T00:54:27.865Z,12.63
2023-01-03T00:56:54.917Z,14.43
2023-01-03T00:59:22.903Z,13.68
2023-01-03T01:01:53.970Z,13.27
2023-01-03T01:04:26.912Z,13.43
2023-01-03T01:06:59.899Z,13.67
2023-01-03T01:09:33.201Z,12.52
2023-01-03T01:12:00.357Z,13.55
2023-01-03T01:14:29.146Z,12.82
2023-01-03T01:17:02.599Z,13.38
2023-01-03T01:19:36.788Z,13.52
2023-01-03T01:22:04.214Z,14.13
2023-01-03T01:24:31.872Z,13.57
2023-01-03T01:26:59.056Z,13.23
2023-01-03T01:29:26.406Z,14.15
2023-01-03T01:31:53.566Z,12.50
2023-01-03T01:34:20.599Z,13.90
2023-01-03T01:36:47.851Z,13.32
2023-01-03T01:39:27.055Z,14.10
2023-01-03T01:42:19.655Z,12.93
2023-01-03T01:45:06.813Z,12.23
2023-01-03T01:47:54.567Z,12.88
2023-01-03T01:50:47.518Z,13.45
2023-01-03T01:53:18.205Z,13.68
2023-01-03T01:56:03.765Z,12.68
2023-01-03T01:58:35.469Z,12.65
2023-01-03T02:01:06.853Z,13.65
2023-01-03T02:03:34.018Z,12.85
2023-01-03T02:06:02.795Z,12.82
2023-01-03T02:08:29.863Z,12.98
2023-01-03T02:11:13.755Z,13.55
2023-01-03T02:14:19.967Z,14.07
2023-01-03T02:17:11.655Z,12.68
2023-01-03T02:19:50.466Z,12.50
2023-01-03T02:22:26.219Z,13.13
2023-01-03T02:25:19.158Z,12.60
2023-01-03T02:28:21.705Z,13.30
2023-01-03T02:31:04.778Z,13.15
2023-01-03T02:33:37.438Z,14.53
2023-01-03T02:36:23.104Z,13.98
2023-01-03T02:39:01.455Z,12.93
2023-01-03T02:41:51.565Z,11.60
2023-01-03T02:44:28.031Z,13.95
2023-01-03T02:47:03.297Z,14.35
2023-01-03T02:49:34.823Z,14.45
2023-01-03T02:52:13.783Z,15.70
2023-01-03T02:54:46.469Z,15.52
2023-01-03T02:57:17.761Z,18.73
2023-01-03T03:00:00.664Z,16.83
2023-01-03T03:02:33.081Z,14.50
2023-01-03T03:05:05.443Z,15.38
2023-01-03T03:07:36.860Z,14.13
2023-01-03T03:10:24.867Z,14.27
2023-01-03T03:13:13.394Z,15.00
2023-01-03T03:15:54.939Z,14.70
2023-01-03T03:18:32.815Z,14.50
2023-01-03T03:21:20.833Z,17.02
2023-01-03T03:24:10.276Z,14.80
2023-01-03T03:26:42.887Z,15.02
2023-01-03T03:29:16.835Z,16.77
2023-01-03T03:31:48.436Z,16.35
2023-01-03T03:34:25.024Z,15.25
2023-01-03T03:36:58.758Z,15.90
2023-01-03T03:42:43.769Z,15.98
2023-01-03T03:45:18.456Z,16.98
2023-01-03T03:47:56.076Z,17.45
2023-01-03T03:50:46.365Z,16.45
2023-01-03T03:53:16.440Z,18.90
2023-01-03T03:55:52.256Z,17.30
2023-01-03T03:58:27.129Z,19.33
2023-01-03T04:00:55.990Z,23.52
2023-01-03T04:03:25.111Z,21.95
2023-01-03T04:06:02.388Z,24.15
2023-01-03T04:08:29.560Z,22.20
2023-01-03T04:11:05.588Z,25.42
2023-01-03T04:13:38.100Z,22.25
2023-01-03T04:16:07.888Z,26.58
2023-01-03T04:18:35.137Z,22.40
2023-01-03T04:21:02.634Z,26.08
2023-01-03T04:23:29.723Z,25.73
2023-01-03T04:25:56.697Z,23.77
2023-01-03T04:28:23.942Z,27.15
2023-01-03T04:30:50.929Z,26.63
2023-01-03T04:33:17.986Z,28.30
2023-01-03T04:35:44.987Z,26.70
2023-01-03T04:38:12.043Z,26.27
2023-01-03T04:40:39.084Z,26.27
2023-01-03T04:43:26.430Z,26.95
2023-01-03T04:45:53.562Z,24.25
2023-01-03T04:48:20.631Z,24.42
2023-01-03T04:50:54.981Z,24.35
2023-01-03T04:53:23.561Z,22.75
2023-01-03T04:55:52.227Z,22.65
2023-01-03T04:58:19.895Z,23.13
2023-01-03T05:00:47.204Z,23.23
2023-01-03T05:03:14.520Z,26.42
2023-01-03T05:05:41.651Z,26.02
2023-01-03T05:08:11.767Z,25.85
2023-01-03T05:10:40.027Z,27.35
2023-01-03T05:13:08.504Z,27.23
2023-01-03T05:15:38.832Z,26.92
2023-01-03T05:18:06.934Z,27.27
2023-01-03T05:20:55.355Z,29.58
2023-01-03T05:23:41.782Z,28.75
2023-01-03T05:26:17.494Z,28.27
2023-01-03T05:28:47.974Z,28.38
2023-01-03T05:31:15.121Z,30.45
2023-01-03T05:33:42.230Z,29.95
2023-01-03T05:36:10.045Z,31.23
2023-01-03T05:38:38.447Z,32.90
2023-01-03T05:41:07.429Z,33.15
2023-01-03T05:43:34.567Z,34.05
2023-01-03T05:46:01.765Z,34.47
2023-01-03T05:48:28.921Z,36.53
2023-01-03T05:50:57.921Z,34.67
2023-01-03T05:53:25.396Z,34.25
2023-01-03T05:55:52.914Z,35.00
2023-01-03T05:58:20.091Z,36.20
2023-01-03T06:00:47.682Z,35.13
2023-01-03T06:03:14.918Z,35.47
2023-01-03T06:05:46.258Z,35.38
2023-01-03T06:08:16.751Z,33.22
2023-01-03T06:10:43.818Z,34.40
2023-01-03T06:13:11.053Z,34.25
2023-01-03T06:15:38.105Z,35.45
2023-01-03T06:18:08.435Z,32.63
2023-01-03T06:20:36.466Z,32.55
2023-01-03T06:23:03.480Z,31.00
2023-01-03T06:25:30.464Z,31.63
2023-01-03T06:27:57.494Z,33.60
2023-01-03T06:30:24.498Z,34.20
2023-01-03T06:32:51.595Z,32.30
2023-01-03T06:35:18.845Z,34.45
2023-01-03T06:37:45.982Z,34.13
2023-01-03T06:40:13.151Z,34.60
2023-01-03T06:42:40.221Z,32.40
2023-01-03T06:45:27.148Z,33.35
2023-01-03T06:48:17.516Z,30.52
2023-01-03T06:51:03.488Z,30.90
2023-01-03T06:53:34.657Z,31.15
2023-01-03T06:56:02.846Z,30.15
2023-01-03T06:58:30.115Z,29.63
2023-01-03T07:00:59.040Z,28.88
2023-01-03T07:03:26.120Z,28.38
2023-01-03T07:05:53.167Z,28.00
2023-01-03T07:08:20.439Z,28.48
2023-01-03T07:10:47.568Z,25.38
2023-01-03T07:13:33.359Z,24.90
2023-01-03T07:16:00.504Z,25.42
2023-01-03T07:18:27.694Z,22.55
2023-01-03T07:20:54.840Z,25.92
2023-01-03T07:23:21.988Z,23.20
2023-01-03T07:25:49.082Z,22.55
2023-01-03T07:28:17.394Z,24.17
2023-01-03T07:30:45.758Z,24.30
2023-01-03T07:33:15.168Z,23.48
2023-01-03T07:35:42.323Z,22.90
2023-01-03T07:38:11.124Z,22.85
2023-01-03T07:40:38.780Z,22.40
2023-01-03T07:43:24.685Z,22.55
2023-01-03T07:45:51.891Z,22.05
2023-01-03T07:48:19.014Z,21.33
2023-01-03T07:50:46.103Z,22.10
2023-01-03T07:53:16.739Z,21.65
2023-01-03T07:55:45.393Z,21.63
2023-01-03T07:58:13.269Z,20.77
2023-01-03T08:00:40.921Z,20.35
2023-01-03T08:03:11.259Z,20.42
2023-01-03T08:05:38.875Z,18.02
2023-01-03T08:08:07.599Z,17.85
2023-01-03T08:11:12.941Z,18.35
2023-01-03T08:13:41.177Z,15.82
2023-01-03T08:16:12.825Z,17.25
2023-01-03T08:18:41.647Z,18.73
2023-01-03T08:21:10.895Z,17.27
2023-01-03T08:23:39.741Z,16.52
2023-01-03T08:26:13.549Z,17.13
2023-01-03T08:31:12.044Z,15.05
2023-01-03T08:33:47.154Z,16.85
2023-01-03T08:36:15.001Z,16.10
2023-01-03T08:39:00.460Z,17.15
2023-01-03T08:41:31.741Z,15.57
2023-01-03T08:44:01.280Z,14.68
2023-01-03T08:46:30.564Z,13.82
2023-01-03T08:48:57.664Z,13.57
2023-01-03T08:51:26.569Z,13.90
2023-01-03T08:53:54.177Z,13.82
2023-01-03T08:56:21.561Z,14.35
2023-01-03T08:58:48.913Z,12.85
2023-01-03T09:01:16.065Z,13.48
2023-01-03T09:03:43.536Z,13.38
2023-01-03T09:06:10.633Z,12.82
2023-01-03T09:08:38.557Z,13.43
2023-01-03T09:11:08.982Z,11.77
2023-01-03T09:13:36.807Z,13.75
2023-01-03T09:16:07.704Z,12.88
2023-01-03T09:18:36.650Z,13.40
2023-01-03T09:21:06.944Z,12.90
2023-01-03T09:23:35.685Z,12.98
2023-01-03T09:26:04.267Z,14.30
2023-01-03T09:28:31.589Z,12.73
2023-01-03T09:30:58.717Z,14.43
2023-01-03T09:33:25.943Z,15.10
2023-01-03T09:35:56.981Z,14.38
2023-01-03T09:38:24.600Z,14.27
2023-01-03T09:41:06.734Z,14.00
2023-01-03T09:43:38.840Z,14.90
2023-01-03T09:46:07.459Z,14.65
2023-01-03T09:48:38.070Z,15.45
2023-01-03T09:51:30.501Z,14.40
2023-01-03T09:54:16.783Z,15.55
2023-01-03T09:57:02.729Z,15.77
2023-01-03T09:59:55.251Z,15.20
2023-01-03T10:03:03.038Z,17.10
2023-01-03T10:06:00.984Z,15.98
2023-01-03T10:08:37.688Z,16.75
2023-01-03T10:11:12.223Z,15.82
2023-01-03T10:13:48.454Z,17.00
2023-01-03T10:16:47.764Z,16.30
2023-01-03T10:19:47.634Z,16.80
2023-01-03T10:22:21.879Z,17.83
2023-01-03T10:24:58.943Z,16.90
2023-01-03T10:27:33.204Z,17.10
2023-01-03T10:30:03.010Z,17.70
2023-01-03T10:32:54.180Z,20.05
2023-01-03T10:35:27.357Z,18.35
2023-01-03T10:37:56.131Z,16.92
2023-01-03T10:40:50.012Z,18.48
2023-01-03T10:43:33.544Z,18.63
2023-01-03T10:46:04.585Z,16.92
2023-01-03T10:51:47.919Z,17.77
2023-01-03T10:54:17.788Z,16.58
2023-01-03T10:56:46.894Z,18.67
2023-01-03T10:59:23.330Z,17.90
2023-01-03T11:01:56.281Z,18.63
2023-01-03T11:04:24.643Z,17.83
2023-01-03T11:07:11.620Z,16.02
2023-01-03T11:09:57.010Z,16.92
2023-01-03T11:12:34.180Z,17.83
2023-01-03T11:15:05.669Z,17.60
2023-01-03T11:17:33.700Z,18.25
2023-01-03T11:20:00.984Z,17.02
2023-01-03T11:22:35.516Z,18.77
2023-01-03T11:25:12.557Z,18.00
2023-01-03T11:27:48.567Z,18.27
2023-01-03T11:30:18.501Z,17.25
2023-01-03T11:32:53.963Z,18.23
2023-01-03T11:35:39.027Z,17.50
2023-01-03T11:38:40.788Z,17.95
2023-01-03T11:41:36.810Z,15.93
2023-01-03T11:44:49.877Z,17.40
2023-01-03T11:47:24.856Z,15.63
2023-01-03T11:50:00.671Z,17.23
2023-01-03T11:53:08.088Z,16.55
2023-01-03T11:55:57.607Z,15.57
2023-01-03T11:58:46.282Z,17.17
2023-01-03T12:01:39.256Z,15.45
2023-01-03T12:04:25.958Z,16.45
2023-01-03T12:07:47.200Z,16.67
2023-01-03T12:10:17.374Z,18.23
2023-01-03T12:13:04.079Z,17.10
2023-01-03T12:15:50.149Z,17.83
2023-01-03T12:18:27.608Z,16.13
2023-01-03T12:20:59.712Z,17.48
2023-01-03T12:23:40.035Z,15.73
2023-01-03T12:26:14.207Z,16.77
2023-01-03T12:29:01.679Z,17.70
2023-01-03T12:31:52.262Z,15.95
2023-01-03T12:34:58.146Z,16.20
2023-01-03T12:37:39.312Z,14.85
2023-01-03T12:40:18.297Z,14.85
2023-01-03T12:43:04.903Z,13.95
2023-01-03T12:45:42.546Z,15.23
2023-01-03T12:48:28.321Z,15.77
2023-01-03T12:50:56.112Z,12.85
2023-01-03T12:53:38.798Z,13.95
2023-01-03T12:56:11.408Z,13.95
2023-01-03T12:59:09.276Z,13.38
2023-01-03T13:01:54.047Z,12.63
2023-01-03T13:04:41.418Z,13.60
2023-01-03T13:07:29.508Z,12.57
2023-01-03T13:10:02.077Z,14.52
2023-01-03T13:12:31.482Z,13.70
2023-01-03T13:15:36.692Z,12.98
2023-01-03T13:18:22.840Z,13.13
2023-01-03T13:20:54.282Z,11.48
2023-01-03T13:23:21.230Z,11.73
2023-01-03T13:26:06.669Z,10.70
2023-01-03T13:28:36.687Z,9.65
2023-01-03T13:31:18.879Z,9.88
2023-01-03T13:33:48.896Z,7.93
2023-01-03T13:36:15.932Z,7.38
2023-01-03T13:38:42.999Z,8.48
2023-01-03T13:41:37.338Z,7.55
2023-01-03T13:46:51.629Z,6.25
2023-01-03T13:49:25.080Z,6.55
2023-01-03T13:51:57.201Z,6.30
2023-01-03T13:54:36.624Z,5.70
2023-01-03T13:57:25.905Z,5.88
2023-01-03T13:59:53.319Z,6.22
2023-01-03T14:02:23.525Z,6.18
2023-01-03T14:05:15.258Z,5.45
2023-01-03T14:08:00.043Z,6.45
2023-01-03T14:10:40.940Z,6.35
2023-01-03T14:13:38.835Z,5.78
2023-01-03T14:16:43.032Z,5.30
2023-01-03T14:19:22.998Z,5.20
2023-01-03T14:22:14.233Z,6.00
2023-01-03T14:24:52.596Z,5.60
2023-01-03T14:27:23.019Z,6.07
2023-01-03T14:29:53.995Z,7.47
2023-01-03T14:32:35.217Z,5.78
2023-01-03T14:35:03.327Z,8.65
2023-01-03T14:37:33.254Z,6.18
2023-01-03T14:40:07.786Z,12.05
2023-01-03T14:42:34.773Z,9.85
2023-01-03T14:45:04.633Z,8.52
2023-01-03T14:47:39.244Z,8.85
2023-01-03T14:50:28.449Z,19.45
2023-01-03T14:52:58.050Z,11.80
2023-01-03T14:55:30.963Z,6.15
2023-01-03T14:57:59.472Z,5.50
2023-01-03T15:00:33.544Z,7.18
2023-01-03T15:03:02.861Z,12.73
2023-01-03T15:05:35.729Z,6.50
2023-01-03T15:10:55.466Z,6.82
2023-01-03T15:13:36.835Z,7.38
2023-01-03T15:16:08.167Z,6.30
2023-01-03T15:18:45.212Z,6.57
2023-01-03T15:21:16.614Z,6.60
2023-01-03T15:23:47.096Z,6.32
2023-01-03T15:26:36.974Z,6.57
2023-01-03T15:29:20.584Z,6.00
2023-01-03T15:31:54.310Z,6.07
2023-01-03T15:34:25.371Z,5.57
2023-01-03T15:36:59.717Z,6.28
2023-01-03T15:39:37.828Z,5.10
2023-01-03T15:42:50.314Z,4.78
2023-01-03T15:45:27.490Z,4.70
2023-01-03T15:47:57.859Z,3.90
2023-01-03T15:50:37.744Z,6.13
2023-01-03T15:53:04.805Z,5.90
2023-01-03T15:55:32.312Z,4.78
2023-01-03T15:57:59.418Z,4.13
2023-01-03T16:00:26.518Z,4.38
2023-01-03T16:02:54.378Z,4.75
2023-01-03T16:05:22.922Z,5.03
2023-01-03T16:07:51.150Z,4.60
2023-01-03T16:10:18.370Z,4.95
2023-01-03T16:12:45.543Z,3.97
2023-01-03T16:15:20.314Z,5.00
2023-01-03T16:17:48.748Z,4.30
2023-01-03T16:20:18.311Z,4.78
2023-01-03T16:22:59.681Z,4.60
2023-01-03T16:25:28.127Z,4.45
2023-01-03T16:27:55.286Z,5.28
2023-01-03T16:30:24.556Z,5.90
2023-01-03T16:32:51.959Z,4.28
2023-01-03T16:35:20.417Z,4.95
2023-01-03T16:37:47.458Z,4.68
2023-01-03T16:40:17.379Z,3.40
2023-01-03T16:42:44.496Z,4.13
2023-01-03T16:45:11.796Z,3.80
2023-01-03T16:47:39.330Z,3.65
2023-01-03T16:50:12.979Z,4.43
2023-01-03T16:52:44.135Z,3.55
2023-01-03T16:55:22.027Z,3.25
2023-01-03T16:57:54.274Z,3.95
2023-01-03T17:00:28.132Z,3.85
2023-01-03T17:02:56.326Z,3.95
2023-01-03T17:05:23.751Z,3.40
2023-01-03T17:07:53.659Z,4.03
2023-01-03T17:10:33.774Z,3.20
2023-01-03T17:13:08.379Z,3.75
2023-01-03T17:15:40.225Z,3.63
2023-01-03T17:18:19.069Z,3.30
2023-01-03T17:20:51.964Z,4.90
2023-01-03T17:23:19.401Z,4.30
2023-01-03T17:25:46.474Z,3.88
2023-01-03T17:28:13.689Z,3.17
2023-01-03T17:30:40.766Z,3.63
2023-01-03T17:33:14.737Z,4.20
2023-01-03T17:35:44.498Z,3.88
2023-01-03T17:38:31.854Z,4.30
2023-01-03T17:40:58.910Z,3.53
2023-01-03T17:43:25.987Z,4.13
2023-01-03T17:46:20.719Z,4.18
2023-01-03T17:49:09.104Z,4.05
2023-01-03T17:51:36.737Z,15.98
2023-01-03T17:54:03.946Z,15.88
2023-01-03T17:56:31.287Z,19.80
2023-01-03T17:58:58.320Z,14.25
2023-01-03T18:01:25.506Z,11.82
2023-01-03T18:03:53.302Z,8.40
2023-01-03T18:06:24.457Z,4.63
2023-01-03T18:08:53.434Z,7.85
2023-01-03T18:11:25.009Z,4.70
2023-01-03T18:13:52.435Z,4.07
2023-01-03T18:16:21.734Z,4.65
2023-01-03T18:18:48.973Z,3.92
2023-01-03T18:21:22.947Z,4.50
2023-01-03T18:23:57.536Z,5.38
2023-01-03T18:26:32.038Z,5.88
2023-01-03T18:28:59.235Z,4.93
2023-01-03T18:31:26.489Z,4.20
2023-01-03T18:33:54.096Z,4.03
2023-01-03T18:36:37.001Z,4.45
2023-01-03T18:39:13.996Z,4.82
2023-01-03T18:41:41.801Z,5.05
2023-01-03T18:44:35.004Z,5.20
2023-01-03T18:47:02.517Z,5.70
2023-01-03T18:49:29.526Z,4.68
2023-01-03T18:51:58.143Z,4.18
2023-01-03T18:54:25.276Z,5.43
2023-01-03T18:56:52.695Z,5.05
2023-01-03T18:59:24.191Z,7.70
2023-01-03T19:01:51.960Z,3.60
2023-01-03T19:04:19.556Z,6.57
2023-01-03T19:06:49.449Z,6.95
2023-01-03T19:09:25.813Z,9.40
2023-01-03T19:11:54.246Z,8.70
2023-01-03T19:14:21.279Z,15.02
2023-01-03T19:16:48.354Z,7.95
2023-01-03T19:19:15.415Z,6.47
2023-01-03T19:21:47.000Z,5.15
2023-01-03T19:24:38.919Z,3.60
2023-01-03T19:27:17.724Z,3.58
2023-01-03T19:29:45.115Z,3.58
2023-01-03T19:32:19.088Z,3.95
2023-01-03T19:34:46.149Z,4.20
2023-01-03T19:37:13.173Z,3.35
2023-01-03T19:39:40.201Z,4.38
2023-01-03T19:42:34.977Z,3.95
2023-01-03T19:45:08.034Z,3.42
2023-01-03T19:47:35.094Z,3.47
2023-01-03T19:50:16.370Z,3.05
2023-01-03T19:52:43.424Z,2.70
2023-01-03T19:55:12.007Z,2.80
2023-01-03T19:57:40.911Z,2.83
2023-01-03T20:00:18.173Z,2.40
2023-01-03T20:02:46.550Z,3.22
2023-01-03T20:05:26.524Z,3.05
2023-01-03T20:07:53.620Z,3.00
2023-01-03T20:10:25.474Z,3.13
2023-01-03T20:12:55.362Z,3.17
2023-01-03T20:15:28.471Z,2.70
2023-01-03T20:17:56.338Z,2.88
2023-01-03T20:20:30.745Z,3.47
2023-01-03T20:23:07.157Z,2.70
2023-01-03T20:25:37.684Z,4.35
2023-01-03T20:28:06.690Z,3.90
2023-01-03T20:30:34.404Z,3.55
2023-01-03T20:33:01.683Z,4.07
2023-01-03T20:38:24.787Z,18.40
2023-01-03T20:40:55.984Z,5.38
2023-01-03T20:43:24.332Z,24.55
2023-01-03T20:45:55.978Z,13.85
2023-01-03T20:48:26.202Z,3.88
2023-01-03T20:50:54.611Z,6.70
2023-01-03T20:53:25.938Z,5.38
2023-01-03T20:55:54.367Z,4.40
2023-01-03T20:58:27.781Z,4.40
2023-01-03T21:01:01.986Z,3.25
2023-01-03T21:03:32.128Z,3.45
2023-01-03T21:05:59.400Z,4.05
2023-01-03T21:08:45.180Z,2.67
2023-01-03T21:11:12.358Z,2.95
2023-01-03T21:13:39.520Z,3.38
2023-01-03T21:16:39.391Z,3.67
2023-01-03T21:19:12.549Z,4.45
2023-01-03T21:21:40.602Z,3.10
2023-01-03T21:24:13.026Z,2.53
2023-01-03T21:26:40.664Z,2.58
2023-01-03T21:29:08.500Z,2.95
2023-01-03T21:31:36.885Z,2.88
2023-01-03T21:34:07.902Z,3.17
2023-01-03T21:36:36.914Z,3.70
2023-01-03T21:39:04.654Z,4.45
2023-01-03T21:41:34.047Z,4.70
2023-01-03T21:44:03.859Z,2.33
2023-01-03T21:46:31.021Z,5.43
2023-01-03T21:48:58.300Z,6.10
2023-01-03T21:51:35.464Z,3.58
2023-01-03T21:54:09.458Z,4.65
2023-01-03T21:56:45.136Z,5.28
2023-01-03T21:59:16.369Z,5.95
2023-01-03T22:02:03.823Z,4.32
2023-01-03T22:04:32.148Z,4.70
2023-01-03T22:07:00.618Z,3.17
2023-01-03T22:09:48.169Z,5.22
2023-01-03T22:12:16.577Z,3.08
2023-01-03T22:14:45.130Z,2.85
2023-01-03T22:17:12.307Z,5.22
2023-01-03T22:19:39.356Z,3.90
2023-01-03T22:22:07.010Z,3.10
2023-01-03T22:24:34.059Z,4.75
2023-01-03T22:27:01.552Z,5.22
2023-01-03T22:29:28.626Z,2.60
2023-01-03T22:31:55.740Z,2.78
2023-01-03T22:34:22.856Z,1.80
2023-01-03T22:36:50.261Z,1.77
2023-01-03T22:39:17.299Z,1.92
2023-01-03T22:41:44.352Z,2.83
2023-01-03T22:44:11.374Z,2.00
2023-01-03T22:46:39.424Z,1.45
2023-01-03T22:49:07.876Z,2.28
2023-01-03T22:51:34.862Z,1.75
2023-01-03T22:54:01.903Z,1.95
2023-01-03T22:56:29.313Z,2.17
2023-01-03T22:58:56.374Z,2.53
2023-01-03T23:01:27.476Z,1.77
2023-01-03T23:04:00.263Z,2.20
2023-01-03T23:06:29.269Z,1.95
2023-01-03T23:08:56.929Z,2.05
2023-01-03T23:11:45.151Z,2.25
2023-01-03T23:14:14.954Z,2.10
2023-01-03T23:16:42.301Z,2.22
2023-01-03T23:19:15.439Z,2.60
2023-01-03T23:21:45.270Z,2.03
2023-01-03T23:24:17.389Z,2.67
2023-01-03T23:26:45.062Z,2.53
2023-01-03T23:29:14.172Z,2.08
2023-01-03T23:31:42.210Z,1.60
2023-01-03T23:34:10.836Z,2.03
2023-01-03T23:36:38.319Z,1.73
2023-01-03T23:39:06.478Z,1.70
2023-01-03T23:41:34.455Z,2.22
2023-01-03T23:44:01.678Z,2.72
2023-01-03T23:46:28.794Z,2.30
2023-01-03T23:48:56.874Z,1.98
2023-01-03T23:51:25.492Z,2.30
2023-01-03T23:53:53.622Z,2.42
2023-01-03T23:56:24.092Z,2.20
2023-01-03T23:58:52.213Z,2.20
